Martos, Spain
Current Conditions -  °F | °C
As of 7:00 PM on Saturday 25 Oct 2014 (Local Time) from LEGR Reporting Station
Clear Clear  
Wind Chill: 77°   Ceiling: Unl
Heat Index: 78°   Visibility: 6mi
Dew Point: 41°   Wind: 5mph
Humidity: 28%   Direction: 170°S
Pressure: 30.09"   Gusts: NA
Location:  37.72°N, 3.97°W
Report Text: LEGR 251700Z 17004KT 140V200 CAVOK 25/05 Q1019
Loading
Personal Weather Stations






























Interactive Weather Map
Tropical Storm Tracking
New forecast layout! Learn more

10-Day Weather Forecast

Advertisements
Track Severe Weather on mobile